sensor_id;sensor_type;location;lat;lon;timestamp;pressure;altitude;pressure_sealevel;temperature;humidity
71778;BME280;59609;52.430;4.668;2022-10-13T00:00:24;101981.03;;;10.43;100.00
71778;BME280;59609;52.430;4.668;2022-10-13T00:02:50;101983.19;;;10.39;100.00
71778;BME280;59609;52.430;4.668;2022-10-13T00:05:18;101980.25;;;10.31;100.00
71778;BME280;59609;52.430;4.668;2022-10-13T00:07:44;101982.47;;;10.37;100.00
71778;BME280;59609;52.430;4.668;2022-10-13T00:10:09;101978.97;;;10.35;100.00
71778;BME280;59609;52.430;4.668;2022-10-13T00:12:36;101976.34;;;10.33;100.00
71778;BME280;59609;52.430;4.668;2022-10-13T00:15:02;101965.47;;;10.32;100.00
71778;BME280;59609;52.430;4.668;2022-10-13T00:17:28;101974.00;;;10.29;100.00
71778;BME280;59609;52.430;4.668;2022-10-13T00:19:53;101966.22;;;10.34;100.00
71778;BME280;59609;52.430;4.668;2022-10-13T00:22:18;101968.97;;;10.34;100.00
71778;BME280;59609;52.430;4.668;2022-10-13T00:24:49;101959.69;;;10.35;100.00
71778;BME280;59609;52.430;4.668;2022-10-13T00:27:15;101965.38;;;10.43;100.00
71778;BME280;59609;52.430;4.668;2022-10-13T00:29:40;101964.63;;;10.41;100.00
71778;BME280;59609;52.430;4.668;2022-10-13T00:32:06;101978.41;;;10.41;100.00
71778;BME280;59609;52.430;4.668;2022-10-13T00:34:31;101960.84;;;10.32;100.00
71778;BME280;59609;52.430;4.668;2022-10-13T00:36:56;101970.41;;;10.38;100.00
71778;BME280;59609;52.430;4.668;2022-10-13T00:39:21;101956.19;;;10.33;100.00
71778;BME280;59609;52.430;4.668;2022-10-13T00:41:47;101959.41;;;10.38;100.00
71778;BME280;59609;52.430;4.668;2022-10-13T00:47:15;101965.19;;;10.35;100.00
71778;BME280;59609;52.430;4.668;2022-10-13T00:49:40;101975.13;;;10.47;100.00
71778;BME280;59609;52.430;4.668;2022-10-13T00:52:06;101958.44;;;10.49;100.00
71778;BME280;59609;52.430;4.668;2022-10-13T00:54:31;101969.50;;;10.58;100.00
71778;BME280;59609;52.430;4.668;2022-10-13T00:56:57;101986.06;;;10.68;100.00
71778;BME280;59609;52.430;4.668;2022-10-13T00:59:26;101981.59;;;10.76;100.00
71778;BME280;59609;52.430;4.668;2022-10-13T01:01:54;101957.78;;;10.75;100.00
71778;BME280;59609;52.430;4.668;2022-10-13T01:04:22;101962.59;;;10.73;100.00
71778;BME280;59609;52.430;4.668;2022-10-13T01:06:49;101960.84;;;10.72;100.00
71778;BME280;59609;52.430;4.668;2022-10-13T01:09:16;101952.56;;;10.72;100.00
71778;BME280;59609;52.430;4.668;2022-10-13T01:11:46;101961.28;;;10.77;100.00
71778;BME280;59609;52.430;4.668;2022-10-13T01:14:33;101955.75;;;10.77;100.00
71778;BME280;59609;52.430;4.668;2022-10-13T01:17:12;101951.13;;;10.88;100.00
71778;BME280;59609;52.430;4.668;2022-10-13T01:28:17;101956.63;;;10.78;100.00
71778;BME280;59609;52.430;4.668;2022-10-13T01:30:51;101943.13;;;10.75;100.00
71778;BME280;59609;52.430;4.668;2022-10-13T01:40:59;101956.81;;;10.86;100.00
71778;BME280;59609;52.430;4.668;2022-10-13T01:43:42;101937.06;;;10.81;100.00
71778;BME280;59609;52.430;4.668;2022-10-13T01:46:14;101954.78;;;10.98;100.00
71778;BME280;59609;52.430;4.668;2022-10-13T01:48:43;101943.22;;;11.04;100.00
71778;BME280;59609;52.430;4.668;2022-10-13T01:51:13;101944.22;;;11.03;100.00
71778;BME280;59609;52.430;4.668;2022-10-13T01:53:40;101924.75;;;10.95;100.00
71778;BME280;59609;52.430;4.668;2022-10-13T01:56:06;101932.03;;;11.05;100.00
71778;BME280;59609;52.430;4.668;2022-10-13T01:58:33;101914.19;;;11.00;100.00
71778;BME280;59609;52.430;4.668;2022-10-13T02:06:21;101914.00;;;11.11;100.00
71778;BME280;59609;52.430;4.668;2022-10-13T02:08:55;101898.81;;;11.07;100.00
71778;BME280;59609;52.430;4.668;2022-10-13T02:11:23;101890.22;;;11.10;100.00
71778;BME280;59609;52.430;4.668;2022-10-13T02:13:56;101904.44;;;11.15;100.00
71778;BME280;59609;52.430;4.668;2022-10-13T02:16:23;101896.03;;;11.16;100.00
71778;BME280;59609;52.430;4.668;2022-10-13T02:18:50;101892.41;;;11.16;100.00
71778;BME280;59609;52.430;4.668;2022-10-13T02:21:16;101905.19;;;11.26;100.00
71778;BME280;59609;52.430;4.668;2022-10-13T02:23:43;101892.53;;;11.14;100.00
71778;BME280;59609;52.430;4.668;2022-10-13T02:26:08;101897.22;;;11.23;100.00
71778;BME280;59609;52.430;4.668;2022-10-13T02:28:36;101890.81;;;11.23;100.00
71778;BME280;59609;52.430;4.668;2022-10-13T02:31:03;101880.94;;;11.20;100.00
71778;BME280;59609;52.430;4.668;2022-10-13T02:33:31;101891.53;;;11.25;100.00
71778;BME280;59609;52.430;4.668;2022-10-13T02:35:56;101867.00;;;11.12;100.00
71778;BME280;59609;52.430;4.668;2022-10-13T02:38:22;101881.38;;;11.25;100.00
71778;BME280;59609;52.430;4.668;2022-10-13T02:40:47;101868.59;;;11.15;100.00
71778;BME280;59609;52.430;4.668;2022-10-13T02:46:34;101871.06;;;11.18;100.00
71778;BME280;59609;52.430;4.668;2022-10-13T02:49:00;101861.78;;;11.19;100.00
71778;BME280;59609;52.430;4.668;2022-10-13T02:51:25;101860.03;;;11.18;100.00
71778;BME280;59609;52.430;4.668;2022-10-13T02:53:51;101855.97;;;11.22;100.00
71778;BME280;59609;52.430;4.668;2022-10-13T02:56:16;101857.84;;;11.21;100.00
71778;BME280;59609;52.430;4.668;2022-10-13T02:58:42;101853.38;;;11.20;100.00
71778;BME280;59609;52.430;4.668;2022-10-13T03:01:13;101847.84;;;11.30;100.00
71778;BME280;59609;52.430;4.668;2022-10-13T03:03:39;101854.06;;;11.32;100.00
71778;BME280;59609;52.430;4.668;2022-10-13T03:06:05;101850.72;;;11.28;100.00
71778;BME280;59609;52.430;4.668;2022-10-13T03:08:32;101850.13;;;11.34;100.00
71778;BME280;59609;52.430;4.668;2022-10-13T03:10:58;101860.59;;;11.31;100.00
71778;BME280;59609;52.430;4.668;2022-10-13T03:13:23;101846.09;;;11.29;100.00
71778;BME280;59609;52.430;4.668;2022-10-13T03:15:49;101850.28;;;11.33;100.00
71778;BME280;59609;52.430;4.668;2022-10-13T03:18:14;101849.84;;;11.37;100.00
71778;BME280;59609;52.430;4.668;2022-10-13T03:20:39;101850.72;;;11.38;100.00
71778;BME280;59609;52.430;4.668;2022-10-13T03:23:05;101854.22;;;11.40;100.00
71778;BME280;59609;52.430;4.668;2022-10-13T03:25:32;101847.22;;;11.46;100.00
71778;BME280;59609;52.430;4.668;2022-10-13T03:27:57;101832.72;;;11.44;100.00
71778;BME280;59609;52.430;4.668;2022-10-13T03:30:22;101845.31;;;11.56;100.00
71778;BME280;59609;52.430;4.668;2022-10-13T03:32:48;101827.47;;;11.50;100.00
71778;BME280;59609;52.430;4.668;2022-10-13T03:35:13;101840.22;;;11.61;100.00
71778;BME280;59609;52.430;4.668;2022-10-13T03:37:39;101836.28;;;11.63;100.00
71778;BME280;59609;52.430;4.668;2022-10-13T03:40:04;101838.88;;;11.65;100.00
71778;BME280;59609;52.430;4.668;2022-10-13T03:42:30;101845.75;;;11.70;100.00
71778;BME280;59609;52.430;4.668;2022-10-13T03:44:55;101841.50;;;11.66;100.00
71778;BME280;59609;52.430;4.668;2022-10-13T03:47:21;101832.94;;;11.69;100.00
71778;BME280;59609;52.430;4.668;2022-10-13T03:49:46;101848.22;;;11.73;100.00
71778;BME280;59609;52.430;4.668;2022-10-13T03:52:11;101838.44;;;11.69;100.00
71778;BME280;59609;52.430;4.668;2022-10-13T03:54:37;101840.50;;;11.77;100.00
71778;BME280;59609;52.430;4.668;2022-10-13T03:57:02;101846.59;;;11.80;100.00
71778;BME280;59609;52.430;4.668;2022-10-13T03:59:27;101834.25;;;11.75;100.00
71778;BME280;59609;52.430;4.668;2022-10-13T04:01:54;101845.72;;;11.80;100.00
71778;BME280;59609;52.430;4.668;2022-10-13T04:04:19;101820.00;;;11.70;100.00
71778;BME280;59609;52.430;4.668;2022-10-13T04:06:44;101831.75;;;11.81;100.00
71778;BME280;59609;52.430;4.668;2022-10-13T04:09:09;101822.31;;;11.84;100.00
71778;BME280;59609;52.430;4.668;2022-10-13T04:11:35;101817.53;;;11.76;100.00
71778;BME280;59609;52.430;4.668;2022-10-13T04:14:00;101828.69;;;11.84;100.00
71778;BME280;59609;52.430;4.668;2022-10-13T04:16:28;101813.16;;;11.83;100.00
71778;BME280;59609;52.430;4.668;2022-10-13T04:18:57;101796.91;;;11.80;100.00
71778;BME280;59609;52.430;4.668;2022-10-13T04:21:23;101798.47;;;11.83;100.00
71778;BME280;59609;52.430;4.668;2022-10-13T04:23:49;101789.94;;;11.76;100.00
71778;BME280;59609;52.430;4.668;2022-10-13T04:26:20;101798.03;;;11.78;100.00
71778;BME280;59609;52.430;4.668;2022-10-13T04:28:47;101775.81;;;11.70;100.00
71778;BME280;59609;52.430;4.668;2022-10-13T04:31:13;101805.88;;;11.82;100.00
71778;BME280;59609;52.430;4.668;2022-10-13T04:33:40;101796.03;;;11.80;100.00
71778;BME280;59609;52.430;4.668;2022-10-13T04:36:06;101810.53;;;11.82;100.00
71778;BME280;59609;52.430;4.668;2022-10-13T04:38:32;101789.94;;;11.76;100.00
71778;BME280;59609;52.430;4.668;2022-10-13T04:40:58;101801.94;;;11.85;100.00
71778;BME280;59609;52.430;4.668;2022-10-13T04:43:24;101800.22;;;11.84;100.00
71778;BME280;59609;52.430;4.668;2022-10-13T04:45:49;101814.56;;;11.97;100.00
71778;BME280;59609;52.430;4.668;2022-10-13T04:48:15;101814.25;;;12.00;100.00
71778;BME280;59609;52.430;4.668;2022-10-13T04:50:40;101799.75;;;11.88;100.00
71778;BME280;59609;52.430;4.668;2022-10-13T04:53:06;101798.28;;;11.94;100.00
71778;BME280;59609;52.430;4.668;2022-10-13T04:55:34;101799.00;;;11.96;100.00
71778;BME280;59609;52.430;4.668;2022-10-13T04:58:00;101815.13;;;12.01;100.00
71778;BME280;59609;52.430;4.668;2022-10-13T05:00:25;101806.34;;;12.05;100.00
71778;BME280;59609;52.430;4.668;2022-10-13T05:02:50;101811.69;;;12.16;100.00
71778;BME280;59609;52.430;4.668;2022-10-13T05:05:16;101798.06;;;12.05;100.00
71778;BME280;59609;52.430;4.668;2022-10-13T05:07:41;101810.41;;;12.11;100.00
71778;BME280;59609;52.430;4.668;2022-10-13T05:10:07;101799.97;;;12.05;100.00
71778;BME280;59609;52.430;4.668;2022-10-13T05:12:33;101807.66;;;12.11;100.00
71778;BME280;59609;52.430;4.668;2022-10-13T05:14:59;101802.38;;;12.17;100.00
71778;BME280;59609;52.430;4.668;2022-10-13T05:17:24;101810.50;;;12.19;100.00
71778;BME280;59609;52.430;4.668;2022-10-13T05:19:50;101795.25;;;12.15;100.00
71778;BME280;59609;52.430;4.668;2022-10-13T05:22:15;101790.03;;;12.12;100.00
71778;BME280;59609;52.430;4.668;2022-10-13T05:24:41;101792.59;;;12.23;100.00
71778;BME280;59609;52.430;4.668;2022-10-13T05:27:09;101771.63;;;12.03;100.00
71778;BME280;59609;52.430;4.668;2022-10-13T05:29:36;101802.78;;;12.22;100.00
71778;BME280;59609;52.430;4.668;2022-10-13T05:32:02;101798.13;;;12.23;100.00
71778;BME280;59609;52.430;4.668;2022-10-13T05:34:27;101798.81;;;12.25;100.00
71778;BME280;59609;52.430;4.668;2022-10-13T05:36:53;101798.53;;;12.28;100.00
71778;BME280;59609;52.430;4.668;2022-10-13T05:39:18;101803.03;;;12.29;100.00
71778;BME280;59609;52.430;4.668;2022-10-13T05:41:43;101793.16;;;12.26;100.00
71778;BME280;59609;52.430;4.668;2022-10-13T05:44:09;101795.75;;;12.28;100.00
71778;BME280;59609;52.430;4.668;2022-10-13T05:46:35;101801.84;;;12.31;100.00
71778;BME280;59609;52.430;4.668;2022-10-13T05:49:01;101789.53;;;12.26;100.00
71778;BME280;59609;52.430;4.668;2022-10-13T05:51:33;101786.19;;;12.22;100.00
71778;BME280;59609;52.430;4.668;2022-10-13T05:54:35;101800.69;;;12.34;100.00
71778;BME280;59609;52.430;4.668;2022-10-13T05:57:05;101802.09;;;12.38;100.00
71778;BME280;59609;52.430;4.668;2022-10-13T05:59:36;101794.69;;;12.38;100.00
71778;BME280;59609;52.430;4.668;2022-10-13T06:02:07;101796.25;;;12.41;100.00
71778;BME280;59609;52.430;4.668;2022-10-13T06:04:38;101805.28;;;12.43;100.00
71778;BME280;59609;52.430;4.668;2022-10-13T06:07:04;101798.72;;;12.44;100.00
71778;BME280;59609;52.430;4.668;2022-10-13T06:09:32;101785.19;;;12.41;100.00
71778;BME280;59609;52.430;4.668;2022-10-13T06:11:59;101801.19;;;12.47;100.00
71778;BME280;59609;52.430;4.668;2022-10-13T06:14:24;101785.06;;;12.43;100.00
71778;BME280;59609;52.430;4.668;2022-10-13T06:16:50;101783.16;;;12.43;100.00
71778;BME280;59609;52.430;4.668;2022-10-13T06:19:15;101778.50;;;12.44;100.00
71778;BME280;59609;52.430;4.668;2022-10-13T06:21:42;101797.06;;;12.51;100.00
71778;BME280;59609;52.430;4.668;2022-10-13T06:24:07;101785.44;;;12.48;100.00
71778;BME280;59609;52.430;4.668;2022-10-13T06:26:32;101791.25;;;12.54;100.00
71778;BME280;59609;52.430;4.668;2022-10-13T06:28:58;101790.19;;;12.55;100.00
71778;BME280;59609;52.430;4.668;2022-10-13T06:31:24;101782.22;;;12.52;100.00
71778;BME280;59609;52.430;4.668;2022-10-13T06:33:49;101792.50;;;12.60;100.00
71778;BME280;59609;52.430;4.668;2022-10-13T06:36:14;101781.91;;;12.55;100.00
71778;BME280;59609;52.430;4.668;2022-10-13T06:38:40;101784.53;;;12.57;100.00
71778;BME280;59609;52.430;4.668;2022-10-13T06:41:05;101779.88;;;12.57;100.00
71778;BME280;59609;52.430;4.668;2022-10-13T06:43:31;101783.34;;;12.59;100.00
71778;BME280;59609;52.430;4.668;2022-10-13T06:45:57;101791.31;;;12.62;100.00
71778;BME280;59609;52.430;4.668;2022-10-13T06:48:23;101785.09;;;12.60;100.00
71778;BME280;59609;52.430;4.668;2022-10-13T06:50:49;101789.41;;;12.63;100.00
71778;BME280;59609;52.430;4.668;2022-10-13T06:53:14;101784.22;;;12.60;100.00
71778;BME280;59609;52.430;4.668;2022-10-13T06:55:40;101781.28;;;12.61;100.00
71778;BME280;59609;52.430;4.668;2022-10-13T06:58:08;101790.28;;;12.63;100.00
71778;BME280;59609;52.430;4.668;2022-10-13T07:00:33;101787.66;;;12.62;100.00
71778;BME280;59609;52.430;4.668;2022-10-13T07:02:58;101782.69;;;12.65;100.00
71778;BME280;59609;52.430;4.668;2022-10-13T07:05:24;101769.50;;;12.59;100.00
71778;BME280;59609;52.430;4.668;2022-10-13T07:07:52;101773.84;;;12.62;100.00
71778;BME280;59609;52.430;4.668;2022-10-13T07:10:21;101771.81;;;12.64;100.00
71778;BME280;59609;52.430;4.668;2022-10-13T07:12:46;101777.09;;;12.75;100.00
71778;BME280;59609;52.430;4.668;2022-10-13T07:15:12;101773.84;;;12.79;100.00
71778;BME280;59609;52.430;4.668;2022-10-13T07:17:37;101758.84;;;12.82;100.00
71778;BME280;59609;52.430;4.668;2022-10-13T07:20:03;101760.72;;;12.81;100.00
71778;BME280;59609;52.430;4.668;2022-10-13T07:22:29;101762.00;;;12.87;100.00
71778;BME280;59609;52.430;4.668;2022-10-13T07:24:55;101766.03;;;12.93;100.00
71778;BME280;59609;52.430;4.668;2022-10-13T07:27:20;101755.66;;;12.95;100.00
71778;BME280;59609;52.430;4.668;2022-10-13T07:29:46;101756.38;;;12.97;100.00
71778;BME280;59609;52.430;4.668;2022-10-13T07:32:11;101767.81;;;13.02;100.00
71778;BME280;59609;52.430;4.668;2022-10-13T07:34:37;101772.72;;;13.08;100.00
71778;BME280;59609;52.430;4.668;2022-10-13T07:37:02;101769.56;;;13.03;100.00
71778;BME280;59609;52.430;4.668;2022-10-13T07:39:27;101751.88;;;12.96;100.00
71778;BME280;59609;52.430;4.668;2022-10-13T07:41:53;101766.34;;;13.07;100.00
71778;BME280;59609;52.430;4.668;2022-10-13T07:44:18;101774.72;;;13.15;100.00
71778;BME280;59609;52.430;4.668;2022-10-13T07:46:43;101738.44;;;13.01;100.00
71778;BME280;59609;52.430;4.668;2022-10-13T07:49:09;101777.22;;;13.26;100.00
71778;BME280;59609;52.430;4.668;2022-10-13T07:51:34;101784.88;;;13.32;100.00
71778;BME280;59609;52.430;4.668;2022-10-13T07:53:59;101769.06;;;13.25;100.00
71778;BME280;59609;52.430;4.668;2022-10-13T07:56:27;101783.88;;;13.33;100.00
71778;BME280;59609;52.430;4.668;2022-10-13T07:58:52;101777.06;;;13.28;100.00
71778;BME280;59609;52.430;4.668;2022-10-13T08:01:18;101767.72;;;13.29;100.00
71778;BME280;59609;52.430;4.668;2022-10-13T08:03:44;101787.00;;;13.38;100.00
71778;BME280;59609;52.430;4.668;2022-10-13T08:06:09;101783.22;;;13.39;100.00
71778;BME280;59609;52.430;4.668;2022-10-13T08:08:35;101781.84;;;13.44;100.00
71778;BME280;59609;52.430;4.668;2022-10-13T08:11:03;101766.41;;;13.41;100.00
71778;BME280;59609;52.430;4.668;2022-10-13T08:13:28;101745.97;;;13.34;100.00
71778;BME280;59609;52.430;4.668;2022-10-13T08:15:59;101774.09;;;13.47;100.00
71778;BME280;59609;52.430;4.668;2022-10-13T08:18:25;101782.06;;;13.50;100.00
71778;BME280;59609;52.430;4.668;2022-10-13T08:20:50;101784.84;;;13.50;100.00
71778;BME280;59609;52.430;4.668;2022-10-13T08:23:15;101787.97;;;13.55;100.00
71778;BME280;59609;52.430;4.668;2022-10-13T08:25:41;101791.06;;;13.52;100.00
71778;BME280;59609;52.430;4.668;2022-10-13T08:28:27;101792.97;;;13.52;100.00
71778;BME280;59609;52.430;4.668;2022-10-13T08:30:53;101789.84;;;13.47;100.00
71778;BME280;59609;52.430;4.668;2022-10-13T08:33:21;101793.47;;;13.47;100.00
71778;BME280;59609;52.430;4.668;2022-10-13T08:35:46;101783.44;;;13.46;100.00
71778;BME280;59609;52.430;4.668;2022-10-13T08:38:12;101778.59;;;13.48;100.00
71778;BME280;59609;52.430;4.668;2022-10-13T08:40:38;101784.88;;;13.58;100.00
71778;BME280;59609;52.430;4.668;2022-10-13T08:43:07;101788.03;;;13.63;100.00
71778;BME280;59609;52.430;4.668;2022-10-13T08:45:33;101788.53;;;13.59;100.00
71778;BME280;59609;52.430;4.668;2022-10-13T08:48:02;101797.00;;;13.57;100.00
71778;BME280;59609;52.430;4.668;2022-10-13T08:50:32;101790.59;;;13.57;100.00
71778;BME280;59609;52.430;4.668;2022-10-13T08:53:02;101790.59;;;13.57;100.00
71778;BME280;59609;52.430;4.668;2022-10-13T08:55:34;101792.31;;;13.58;100.00
71778;BME280;59609;52.430;4.668;2022-10-13T08:58:10;101774.84;;;13.57;100.00
71778;BME280;59609;52.430;4.668;2022-10-13T09:00:36;101786.69;;;13.67;100.00
71778;BME280;59609;52.430;4.668;2022-10-13T09:03:24;101757.72;;;13.62;100.00
71778;BME280;59609;52.430;4.668;2022-10-13T09:08:27;101766.66;;;13.81;100.00
71778;BME280;59609;52.430;4.668;2022-10-13T09:10:57;101765.69;;;13.90;100.00
71778;BME280;59609;52.430;4.668;2022-10-13T09:13:23;101767.94;;;13.95;100.00
71778;BME280;59609;52.430;4.668;2022-10-13T09:15:49;101771.56;;;13.87;100.00
71778;BME280;59609;52.430;4.668;2022-10-13T09:18:15;101754.00;;;13.71;100.00
71778;BME280;59609;52.430;4.668;2022-10-13T09:20:40;101779.50;;;13.82;100.00
71778;BME280;59609;52.430;4.668;2022-10-13T09:23:17;101783.63;;;13.78;100.00
71778;BME280;59609;52.430;4.668;2022-10-13T09:25:48;101775.97;;;13.72;100.00
71778;BME280;59609;52.430;4.668;2022-10-13T09:30:43;101778.59;;;13.74;100.00
71778;BME280;59609;52.430;4.668;2022-10-13T09:35:39;101784.34;;;13.80;100.00
71778;BME280;59609;52.430;4.668;2022-10-13T09:38:20;101782.19;;;13.74;100.00
71778;BME280;59609;52.430;4.668;2022-10-13T09:48:51;101806.34;;;13.56;100.00
71778;BME280;59609;52.430;4.668;2022-10-13T09:51:38;101816.53;;;13.56;100.00
71778;BME280;59609;52.430;4.668;2022-10-13T09:54:21;101813.63;;;13.57;100.00
71778;BME280;59609;52.430;4.668;2022-10-13T09:56:52;101821.59;;;13.60;100.00
71778;BME280;59609;52.430;4.668;2022-10-13T09:59:27;101805.13;;;13.59;100.00
71778;BME280;59609;52.430;4.668;2022-10-13T10:01:56;101798.56;;;13.60;100.00
71778;BME280;59609;52.430;4.668;2022-10-13T10:04:34;101802.91;;;13.62;100.00
71778;BME280;59609;52.430;4.668;2022-10-13T10:07:09;101799.16;;;13.71;100.00
71778;BME280;59609;52.430;4.668;2022-10-13T10:12:03;101798.41;;;13.95;100.00
71778;BME280;59609;52.430;4.668;2022-10-13T10:14:35;101796.53;;;13.96;100.00
71778;BME280;59609;52.430;4.668;2022-10-13T10:17:37;101797.94;;;14.00;100.00
71778;BME280;59609;52.430;4.668;2022-10-13T10:22:57;101778.88;;;13.97;100.00
71778;BME280;59609;52.430;4.668;2022-10-13T10:25:28;101791.59;;;14.15;100.00
71778;BME280;59609;52.430;4.668;2022-10-13T10:34:05;101789.44;;;14.01;100.00
71778;BME280;59609;52.430;4.668;2022-10-13T10:44:52;101768.78;;;14.29;100.00
71778;BME280;59609;52.430;4.668;2022-10-13T10:49:45;101770.41;;;14.40;100.00
71778;BME280;59609;52.430;4.668;2022-10-13T10:52:19;101755.78;;;14.30;100.00
71778;BME280;59609;52.430;4.668;2022-10-13T10:57:56;101771.47;;;14.55;100.00
71778;BME280;59609;52.430;4.668;2022-10-13T11:00:23;101768.16;;;14.52;100.00
71778;BME280;59609;52.430;4.668;2022-10-13T11:35:22;101734.75;;;14.69;100.00
71778;BME280;59609;52.430;4.668;2022-10-13T11:40:23;101730.91;;;14.62;100.00
71778;BME280;59609;52.430;4.668;2022-10-13T11:45:47;101724.97;;;14.41;100.00
71778;BME280;59609;52.430;4.668;2022-10-13T11:48:32;101722.22;;;14.41;100.00
71778;BME280;59609;52.430;4.668;2022-10-13T11:56:44;101715.97;;;14.39;100.00
71778;BME280;59609;52.430;4.668;2022-10-13T12:01:56;101718.59;;;14.40;100.00
71778;BME280;59609;52.430;4.668;2022-10-13T12:04:23;101715.09;;;14.38;100.00
71778;BME280;59609;52.430;4.668;2022-10-13T12:06:55;101716.31;;;14.36;100.00
71778;BME280;59609;52.430;4.668;2022-10-13T12:09:22;101718.50;;;14.16;100.00
71778;BME280;59609;52.430;4.668;2022-10-13T12:12:12;101729.72;;;14.07;100.00
71778;BME280;59609;52.430;4.668;2022-10-13T12:14:41;101721.50;;;13.89;100.00
71778;BME280;59609;52.430;4.668;2022-10-13T12:19:52;101714.41;;;13.86;100.00
71778;BME280;59609;52.430;4.668;2022-10-13T12:22:18;101724.78;;;13.84;100.00
71778;BME280;59609;52.430;4.668;2022-10-13T12:24:59;101717.91;;;13.97;100.00
71778;BME280;59609;52.430;4.668;2022-10-13T12:27:26;101720.34;;;14.00;100.00
71778;BME280;59609;52.430;4.668;2022-10-13T12:29:52;101714.47;;;14.03;100.00
71778;BME280;59609;52.430;4.668;2022-10-13T12:32:29;101705.66;;;14.07;100.00
71778;BME280;59609;52.430;4.668;2022-10-13T12:34:55;101719.00;;;14.12;100.00
71778;BME280;59609;52.430;4.668;2022-10-13T12:37:32;101718.50;;;14.16;100.00
71778;BME280;59609;52.430;4.668;2022-10-13T12:39:59;101719.69;;;14.06;100.00
71778;BME280;59609;52.430;4.668;2022-10-13T12:42:35;101714.13;;;14.06;100.00
71778;BME280;59609;52.430;4.668;2022-10-13T12:45:02;101702.50;;;14.02;100.00
71778;BME280;59609;52.430;4.668;2022-10-13T12:55:21;101711.56;;;14.12;100.00
71778;BME280;59609;52.430;4.668;2022-10-13T12:57:50;101715.34;;;14.03;100.00
71778;BME280;59609;52.430;4.668;2022-10-13T13:00:22;101705.63;;;13.99;100.00
71778;BME280;59609;52.430;4.668;2022-10-13T13:02:59;101695.22;;;14.01;100.00
71778;BME280;59609;52.430;4.668;2022-10-13T13:05:33;101716.56;;;14.01;100.00
71778;BME280;59609;52.430;4.668;2022-10-13T13:08:00;101712.34;;;13.88;100.00
71778;BME280;59609;52.430;4.668;2022-10-13T13:10:26;101713.19;;;13.81;100.00
71778;BME280;59609;52.430;4.668;2022-10-13T13:12:54;101720.09;;;13.77;100.00
71778;BME280;59609;52.430;4.668;2022-10-13T13:15:30;101719.34;;;13.67;100.00
71778;BME280;59609;52.430;4.668;2022-10-13T13:20:52;101721.38;;;13.57;100.00
71778;BME280;59609;52.430;4.668;2022-10-13T13:23:18;101709.75;;;13.53;100.00
71778;BME280;59609;52.430;4.668;2022-10-13T13:25:45;101707.31;;;13.50;100.00
71778;BME280;59609;52.430;4.668;2022-10-13T13:28:12;101712.88;;;13.50;100.00
71778;BME280;59609;52.430;4.668;2022-10-13T13:30:39;101711.81;;;13.51;100.00
71778;BME280;59609;52.430;4.668;2022-10-13T13:33:04;101703.84;;;13.48;100.00
71778;BME280;59609;52.430;4.668;2022-10-13T13:35:30;101706.56;;;13.40;100.00
71778;BME280;59609;52.430;4.668;2022-10-13T13:37:55;101704.81;;;13.39;100.00
71778;BME280;59609;52.430;4.668;2022-10-13T13:40:23;101717.25;;;13.35;100.00
71778;BME280;59609;52.430;4.668;2022-10-13T13:42:48;101718.31;;;13.34;100.00
71778;BME280;59609;52.430;4.668;2022-10-13T13:45:14;101714.38;;;13.19;100.00
71778;BME280;59609;52.430;4.668;2022-10-13T13:47:40;101713.38;;;13.20;100.00
71778;BME280;59609;52.430;4.668;2022-10-13T13:50:17;101705.38;;;13.17;100.00
71778;BME280;59609;52.430;4.668;2022-10-13T13:52:47;101715.09;;;13.21;100.00
71778;BME280;59609;52.430;4.668;2022-10-13T13:55:12;101716.69;;;13.23;100.00
71778;BME280;59609;52.430;4.668;2022-10-13T13:57:38;101715.47;;;13.26;100.00
71778;BME280;59609;52.430;4.668;2022-10-13T14:00:03;101711.34;;;13.30;100.00
71778;BME280;59609;52.430;4.668;2022-10-13T14:02:29;101718.59;;;13.31;100.00
71778;BME280;59609;52.430;4.668;2022-10-13T14:04:54;101707.88;;;13.28;100.00
71778;BME280;59609;52.430;4.668;2022-10-13T14:07:20;101718.78;;;13.29;100.00
71778;BME280;59609;52.430;4.668;2022-10-13T14:09:45;101722.34;;;13.22;100.00
71778;BME280;59609;52.430;4.668;2022-10-13T14:12:10;101719.03;;;13.18;100.00
71778;BME280;59609;52.430;4.668;2022-10-13T14:14:36;101698.75;;;13.10;100.00
71778;BME280;59609;52.430;4.668;2022-10-13T14:17:01;101702.56;;;13.09;100.00
71778;BME280;59609;52.430;4.668;2022-10-13T14:19:28;101706.03;;;13.11;100.00
71778;BME280;59609;52.430;4.668;2022-10-13T14:21:53;101700.19;;;13.14;100.00
71778;BME280;59609;52.430;4.668;2022-10-13T14:24:19;101701.56;;;13.18;100.00
71778;BME280;59609;52.430;4.668;2022-10-13T14:26:44;101685.16;;;13.16;100.00
71778;BME280;59609;52.430;4.668;2022-10-13T14:29:10;101691.78;;;13.23;100.00
71778;BME280;59609;52.430;4.668;2022-10-13T14:31:35;101690.44;;;13.35;100.00
71778;BME280;59609;52.430;4.668;2022-10-13T14:34:00;101680.94;;;13.38;100.00
71778;BME280;59609;52.430;4.668;2022-10-13T14:36:26;101677.53;;;13.44;100.00
71778;BME280;59609;52.430;4.668;2022-10-13T14:38:51;101681.31;;;13.43;100.00
71778;BME280;59609;52.430;4.668;2022-10-13T14:41:18;101680.84;;;13.48;100.00
71778;BME280;59609;52.430;4.668;2022-10-13T14:43:44;101654.31;;;13.37;100.00
71778;BME280;59609;52.430;4.668;2022-10-13T14:46:09;101683.56;;;13.39;100.00
71778;BME280;59609;52.430;4.668;2022-10-13T14:48:35;101683.06;;;13.44;100.00
71778;BME280;59609;52.430;4.668;2022-10-13T14:51:08;101677.47;;;13.36;100.00